sensor_id;sensor_type;location;lat;lon;timestamp;temperature;humidity
53844;DHT22;39744;53.314;5.710;2023-03-01T00:00:37;0.60;99.90
53844;DHT22;39744;53.314;5.710;2023-03-01T00:03:03;0.50;99.90
53844;DHT22;39744;53.314;5.710;2023-03-01T00:05:28;0.50;99.90
53844;DHT22;39744;53.314;5.710;2023-03-01T00:07:54;0.40;99.90
53844;DHT22;39744;53.314;5.710;2023-03-01T00:10:20;0.50;99.90
53844;DHT22;39744;53.314;5.710;2023-03-01T00:12:45;0.50;99.90
53844;DHT22;39744;53.314;5.710;2023-03-01T00:15:11;0.50;99.90
53844;DHT22;39744;53.314;5.710;2023-03-01T00:17:37;0.50;99.90
53844;DHT22;39744;53.314;5.710;2023-03-01T00:20:04;0.40;99.90
53844;DHT22;39744;53.314;5.710;2023-03-01T00:22:33;0.50;99.90
53844;DHT22;39744;53.314;5.710;2023-03-01T00:24:59;0.40;99.90
53844;DHT22;39744;53.314;5.710;2023-03-01T00:27:24;0.40;99.90
53844;DHT22;39744;53.314;5.710;2023-03-01T00:29:50;0.30;99.90
53844;DHT22;39744;53.314;5.710;2023-03-01T00:32:16;0.20;99.90
53844;DHT22;39744;53.314;5.710;2023-03-01T00:34:41;0.30;99.90
53844;DHT22;39744;53.314;5.710;2023-03-01T00:37:07;0.30;99.90
53844;DHT22;39744;53.314;5.710;2023-03-01T00:39:32;0.30;99.90
53844;DHT22;39744;53.314;5.710;2023-03-01T00:41:59;0.40;99.90
53844;DHT22;39744;53.314;5.710;2023-03-01T00:44:25;0.40;99.90
53844;DHT22;39744;53.314;5.710;2023-03-01T00:46:50;0.40;99.90
53844;DHT22;39744;53.314;5.710;2023-03-01T00:49:16;0.40;99.90
53844;DHT22;39744;53.314;5.710;2023-03-01T00:51:42;0.30;99.90
53844;DHT22;39744;53.314;5.710;2023-03-01T00:54:08;0.30;99.90
53844;DHT22;39744;53.314;5.710;2023-03-01T00:56:34;0.30;99.90
53844;DHT22;39744;53.314;5.710;2023-03-01T00:59:00;0.20;99.90
53844;DHT22;39744;53.314;5.710;2023-03-01T01:01:28;0.20;99.90
53844;DHT22;39744;53.314;5.710;2023-03-01T01:04:02;0.10;99.90
53844;DHT22;39744;53.314;5.710;2023-03-01T01:06:37;0.00;99.90
53844;DHT22;39744;53.314;5.710;2023-03-01T01:09:05;-0.10;99.90
53844;DHT22;39744;53.314;5.710;2023-03-01T01:11:31;-0.20;99.90
53844;DHT22;39744;53.314;5.710;2023-03-01T01:13:57;-0.30;99.90
53844;DHT22;39744;53.314;5.710;2023-03-01T01:16:25;-0.30;99.90
53844;DHT22;39744;53.314;5.710;2023-03-01T01:18:51;-0.40;99.90
53844;DHT22;39744;53.314;5.710;2023-03-01T01:21:19;-0.30;99.90
53844;DHT22;39744;53.314;5.710;2023-03-01T01:23:45;-0.40;99.90
53844;DHT22;39744;53.314;5.710;2023-03-01T01:26:20;-0.40;99.90
53844;DHT22;39744;53.314;5.710;2023-03-01T01:28:46;-0.50;99.90
53844;DHT22;39744;53.314;5.710;2023-03-01T01:31:12;-0.50;99.90
53844;DHT22;39744;53.314;5.710;2023-03-01T01:33:38;-0.50;99.90
53844;DHT22;39744;53.314;5.710;2023-03-01T01:36:07;-0.40;99.90
53844;DHT22;39744;53.314;5.710;2023-03-01T01:38:34;-0.40;99.90
53844;DHT22;39744;53.314;5.710;2023-03-01T01:41:00;-0.40;99.90
53844;DHT22;39744;53.314;5.710;2023-03-01T01:43:30;-0.40;99.90
53844;DHT22;39744;53.314;5.710;2023-03-01T01:46:02;-0.40;99.90
53844;DHT22;39744;53.314;5.710;2023-03-01T01:48:43;-0.40;99.90
53844;DHT22;39744;53.314;5.710;2023-03-01T01:51:13;-0.40;99.90
53844;DHT22;39744;53.314;5.710;2023-03-01T01:53:42;-0.40;99.90
53844;DHT22;39744;53.314;5.710;2023-03-01T01:56:11;-0.50;99.90
53844;DHT22;39744;53.314;5.710;2023-03-01T01:58:38;-0.50;99.90
53844;DHT22;39744;53.314;5.710;2023-03-01T02:01:04;-0.60;99.90
53844;DHT22;39744;53.314;5.710;2023-03-01T02:03:32;-0.50;99.90
53844;DHT22;39744;53.314;5.710;2023-03-01T02:06:21;-0.50;99.90
53844;DHT22;39744;53.314;5.710;2023-03-01T02:08:57;-0.60;99.90
53844;DHT22;39744;53.314;5.710;2023-03-01T02:11:25;-0.60;99.90
53844;DHT22;39744;53.314;5.710;2023-03-01T02:13:52;-0.60;99.90
53844;DHT22;39744;53.314;5.710;2023-03-01T02:16:19;-0.60;99.90
53844;DHT22;39744;53.314;5.710;2023-03-01T02:18:45;-0.60;99.90
53844;DHT22;39744;53.314;5.710;2023-03-01T02:26:56;-0.60;99.90
53844;DHT22;39744;53.314;5.710;2023-03-01T02:29:23;-0.60;99.90
53844;DHT22;39744;53.314;5.710;2023-03-01T02:31:51;-0.70;99.90
53844;DHT22;39744;53.314;5.710;2023-03-01T02:34:21;-0.70;99.90
53844;DHT22;39744;53.314;5.710;2023-03-01T02:36:49;-0.70;99.90
53844;DHT22;39744;53.314;5.710;2023-03-01T02:39:33;-0.70;99.90
53844;DHT22;39744;53.314;5.710;2023-03-01T02:41:59;-0.70;99.90
53844;DHT22;39744;53.314;5.710;2023-03-01T02:44:26;-0.60;99.90
53844;DHT22;39744;53.314;5.710;2023-03-01T02:46:55;-0.70;99.90
53844;DHT22;39744;53.314;5.710;2023-03-01T02:49:24;-0.70;99.90
53844;DHT22;39744;53.314;5.710;2023-03-01T02:57:36;-0.70;99.90
53844;DHT22;39744;53.314;5.710;2023-03-01T03:00:14;-0.70;99.90
53844;DHT22;39744;53.314;5.710;2023-03-01T03:02:48;-0.60;99.90
53844;DHT22;39744;53.314;5.710;2023-03-01T03:05:21;-0.60;99.90
53844;DHT22;39744;53.314;5.710;2023-03-01T03:07:48;-0.60;99.90
53844;DHT22;39744;53.314;5.710;2023-03-01T03:10:26;-0.60;99.90
53844;DHT22;39744;53.314;5.710;2023-03-01T03:12:58;-0.60;99.90
53844;DHT22;39744;53.314;5.710;2023-03-01T03:15:25;-0.60;99.90
53844;DHT22;39744;53.314;5.710;2023-03-01T03:17:53;-0.60;99.90
53844;DHT22;39744;53.314;5.710;2023-03-01T03:20:20;-0.60;99.90
53844;DHT22;39744;53.314;5.710;2023-03-01T03:22:48;-0.50;99.90
53844;DHT22;39744;53.314;5.710;2023-03-01T03:25:15;-0.60;99.90
53844;DHT22;39744;53.314;5.710;2023-03-01T03:27:42;-0.60;99.90
53844;DHT22;39744;53.314;5.710;2023-03-01T03:30:11;-0.60;99.90
53844;DHT22;39744;53.314;5.710;2023-03-01T03:32:42;-0.50;99.90
53844;DHT22;39744;53.314;5.710;2023-03-01T03:35:22;-0.60;99.90
53844;DHT22;39744;53.314;5.710;2023-03-01T03:37:48;-0.60;99.90
53844;DHT22;39744;53.314;5.710;2023-03-01T03:40:35;-0.60;99.90
53844;DHT22;39744;53.314;5.710;2023-03-01T03:43:09;-0.60;99.90
53844;DHT22;39744;53.314;5.710;2023-03-01T03:45:36;-0.60;99.90
53844;DHT22;39744;53.314;5.710;2023-03-01T03:48:03;-0.60;99.90
53844;DHT22;39744;53.314;5.710;2023-03-01T03:50:29;-0.70;99.90
53844;DHT22;39744;53.314;5.710;2023-03-01T03:52:55;-0.70;99.90
53844;DHT22;39744;53.314;5.710;2023-03-01T03:55:20;-0.70;99.90
53844;DHT22;39744;53.314;5.710;2023-03-01T03:57:47;-0.70;99.90
53844;DHT22;39744;53.314;5.710;2023-03-01T04:03:47;-0.80;99.90
53844;DHT22;39744;53.314;5.710;2023-03-01T04:06:14;-0.70;99.90
53844;DHT22;39744;53.314;5.710;2023-03-01T04:08:40;-0.70;99.90
53844;DHT22;39744;53.314;5.710;2023-03-01T04:11:06;-0.70;99.90
53844;DHT22;39744;53.314;5.710;2023-03-01T04:13:52;-0.50;99.90
53844;DHT22;39744;53.314;5.710;2023-03-01T04:16:18;-0.50;99.90
53844;DHT22;39744;53.314;5.710;2023-03-01T04:18:44;-0.40;99.90
53844;DHT22;39744;53.314;5.710;2023-03-01T04:21:10;-0.40;99.90
53844;DHT22;39744;53.314;5.710;2023-03-01T04:23:37;-0.40;99.90
53844;DHT22;39744;53.314;5.710;2023-03-01T04:26:03;-0.30;99.90
53844;DHT22;39744;53.314;5.710;2023-03-01T04:28:37;-0.30;99.90
53844;DHT22;39744;53.314;5.710;2023-03-01T04:31:16;-0.30;99.90
53844;DHT22;39744;53.314;5.710;2023-03-01T04:33:49;-0.30;99.90
53844;DHT22;39744;53.314;5.710;2023-03-01T04:36:17;-0.20;99.90
53844;DHT22;39744;53.314;5.710;2023-03-01T04:38:43;-0.20;99.90
53844;DHT22;39744;53.314;5.710;2023-03-01T04:41:13;-0.20;99.90
53844;DHT22;39744;53.314;5.710;2023-03-01T04:43:39;-0.20;99.90
53844;DHT22;39744;53.314;5.710;2023-03-01T04:46:08;-0.20;99.90
53844;DHT22;39744;53.314;5.710;2023-03-01T04:48:36;-0.20;99.90
53844;DHT22;39744;53.314;5.710;2023-03-01T04:51:03;-0.20;99.90
53844;DHT22;39744;53.314;5.710;2023-03-01T04:53:29;-0.10;99.90
53844;DHT22;39744;53.314;5.710;2023-03-01T04:55:55;-0.10;99.90
53844;DHT22;39744;53.314;5.710;2023-03-01T04:58:23;-0.10;99.90
53844;DHT22;39744;53.314;5.710;2023-03-01T05:00:49;0.00;99.90
53844;DHT22;39744;53.314;5.710;2023-03-01T05:03:15;-0.10;99.90
53844;DHT22;39744;53.314;5.710;2023-03-01T05:05:45;-0.10;99.90
53844;DHT22;39744;53.314;5.710;2023-03-01T05:08:11;0.00;99.90
53844;DHT22;39744;53.314;5.710;2023-03-01T05:10:44;0.00;99.90
53844;DHT22;39744;53.314;5.710;2023-03-01T05:13:12;0.00;99.90
53844;DHT22;39744;53.314;5.710;2023-03-01T05:15:39;0.00;99.90
53844;DHT22;39744;53.314;5.710;2023-03-01T05:18:05;0.00;99.90
53844;DHT22;39744;53.314;5.710;2023-03-01T05:20:37;0.00;99.90
53844;DHT22;39744;53.314;5.710;2023-03-01T05:23:02;0.00;99.90
53844;DHT22;39744;53.314;5.710;2023-03-01T05:25:31;0.00;99.90
53844;DHT22;39744;53.314;5.710;2023-03-01T05:27:59;-0.10;99.90
53844;DHT22;39744;53.314;5.710;2023-03-01T05:30:32;-0.10;99.90
53844;DHT22;39744;53.314;5.710;2023-03-01T05:32:58;-0.10;99.90
53844;DHT22;39744;53.314;5.710;2023-03-01T05:35:24;-0.10;99.90
53844;DHT22;39744;53.314;5.710;2023-03-01T05:37:50;-0.10;99.90
53844;DHT22;39744;53.314;5.710;2023-03-01T05:40:19;-0.20;99.90
53844;DHT22;39744;53.314;5.710;2023-03-01T05:42:47;-0.20;99.90
53844;DHT22;39744;53.314;5.710;2023-03-01T05:45:14;-0.20;99.90
53844;DHT22;39744;53.314;5.710;2023-03-01T05:47:40;-0.30;99.90
53844;DHT22;39744;53.314;5.710;2023-03-01T05:50:16;-0.30;99.90
53844;DHT22;39744;53.314;5.710;2023-03-01T05:52:56;-0.30;99.90
53844;DHT22;39744;53.314;5.710;2023-03-01T05:55:22;-0.30;99.90
53844;DHT22;39744;53.314;5.710;2023-03-01T05:57:48;-0.40;99.90
53844;DHT22;39744;53.314;5.710;2023-03-01T06:00:17;-0.40;99.90
53844;DHT22;39744;53.314;5.710;2023-03-01T06:02:43;-0.50;99.90
53844;DHT22;39744;53.314;5.710;2023-03-01T06:05:11;-0.50;99.90
53844;DHT22;39744;53.314;5.710;2023-03-01T06:07:36;-0.60;99.90
53844;DHT22;39744;53.314;5.710;2023-03-01T06:10:03;-0.60;99.90
53844;DHT22;39744;53.314;5.710;2023-03-01T06:12:37;-0.60;99.90
53844;DHT22;39744;53.314;5.710;2023-03-01T06:15:04;-0.60;99.90
53844;DHT22;39744;53.314;5.710;2023-03-01T06:17:32;-0.60;99.90
53844;DHT22;39744;53.314;5.710;2023-03-01T06:19:58;-0.60;99.90
53844;DHT22;39744;53.314;5.710;2023-03-01T06:22:24;-0.60;99.90
53844;DHT22;39744;53.314;5.710;2023-03-01T06:24:50;-0.70;99.90
53844;DHT22;39744;53.314;5.710;2023-03-01T06:27:15;-0.70;99.90
53844;DHT22;39744;53.314;5.710;2023-03-01T06:29:41;-0.70;99.90
53844;DHT22;39744;53.314;5.710;2023-03-01T06:32:07;-0.70;99.90
53844;DHT22;39744;53.314;5.710;2023-03-01T06:34:33;-0.70;99.90
53844;DHT22;39744;53.314;5.710;2023-03-01T06:36:59;-0.80;99.90
53844;DHT22;39744;53.314;5.710;2023-03-01T06:39:24;-0.80;99.90
53844;DHT22;39744;53.314;5.710;2023-03-01T06:41:50;-0.80;99.90
53844;DHT22;39744;53.314;5.710;2023-03-01T06:44:16;-0.80;99.90
53844;DHT22;39744;53.314;5.710;2023-03-01T06:46:41;-0.80;99.90
53844;DHT22;39744;53.314;5.710;2023-03-01T06:49:07;-0.80;99.90
53844;DHT22;39744;53.314;5.710;2023-03-01T06:51:36;-0.70;99.90
53844;DHT22;39744;53.314;5.710;2023-03-01T06:54:03;-0.70;99.90
53844;DHT22;39744;53.314;5.710;2023-03-01T06:56:29;-0.70;99.90
53844;DHT22;39744;53.314;5.710;2023-03-01T06:58:55;-0.70;99.90
53844;DHT22;39744;53.314;5.710;2023-03-01T07:01:20;-0.70;99.90
53844;DHT22;39744;53.314;5.710;2023-03-01T07:03:46;-0.60;99.90
53844;DHT22;39744;53.314;5.710;2023-03-01T07:06:11;-0.60;99.90
53844;DHT22;39744;53.314;5.710;2023-03-01T07:08:37;-0.40;99.90
53844;DHT22;39744;53.314;5.710;2023-03-01T07:11:02;-0.30;99.90
53844;DHT22;39744;53.314;5.710;2023-03-01T07:13:29;-0.20;99.90
53844;DHT22;39744;53.314;5.710;2023-03-01T07:15:55;-0.10;99.90
53844;DHT22;39744;53.314;5.710;2023-03-01T07:18:21;0.00;99.90
53844;DHT22;39744;53.314;5.710;2023-03-01T07:20:46;0.20;99.90
53844;DHT22;39744;53.314;5.710;2023-03-01T07:23:12;0.20;99.90
53844;DHT22;39744;53.314;5.710;2023-03-01T07:25:38;0.30;99.90
53844;DHT22;39744;53.314;5.710;2023-03-01T07:28:04;0.30;99.90
53844;DHT22;39744;53.314;5.710;2023-03-01T07:30:29;0.30;99.90
53844;DHT22;39744;53.314;5.710;2023-03-01T07:32:57;0.40;99.90
53844;DHT22;39744;53.314;5.710;2023-03-01T07:35:25;0.40;99.90
53844;DHT22;39744;53.314;5.710;2023-03-01T07:37:51;0.40;99.90
53844;DHT22;39744;53.314;5.710;2023-03-01T07:40:17;0.50;99.90
53844;DHT22;39744;53.314;5.710;2023-03-01T07:42:42;0.60;99.90
53844;DHT22;39744;53.314;5.710;2023-03-01T07:45:09;0.60;99.90
53844;DHT22;39744;53.314;5.710;2023-03-01T07:47:35;0.70;99.90
53844;DHT22;39744;53.314;5.710;2023-03-01T07:50:01;0.70;99.90
53844;DHT22;39744;53.314;5.710;2023-03-01T07:52:28;0.70;99.90
53844;DHT22;39744;53.314;5.710;2023-03-01T07:54:54;0.70;99.90
53844;DHT22;39744;53.314;5.710;2023-03-01T07:57:19;0.80;99.90
53844;DHT22;39744;53.314;5.710;2023-03-01T07:59:45;0.80;99.90
53844;DHT22;39744;53.314;5.710;2023-03-01T08:02:11;0.90;99.90
53844;DHT22;39744;53.314;5.710;2023-03-01T08:04:36;0.90;99.90
53844;DHT22;39744;53.314;5.710;2023-03-01T08:07:04;1.00;99.90
53844;DHT22;39744;53.314;5.710;2023-03-01T08:09:30;1.00;99.90
53844;DHT22;39744;53.314;5.710;2023-03-01T08:11:57;1.10;99.90
53844;DHT22;39744;53.314;5.710;2023-03-01T08:14:25;1.20;99.90
53844;DHT22;39744;53.314;5.710;2023-03-01T08:16:50;1.30;99.90
53844;DHT22;39744;53.314;5.710;2023-03-01T08:19:16;1.40;99.90
53844;DHT22;39744;53.314;5.710;2023-03-01T08:21:42;1.40;99.90
53844;DHT22;39744;53.314;5.710;2023-03-01T08:24:08;1.50;99.90
53844;DHT22;39744;53.314;5.710;2023-03-01T08:26:36;1.70;99.90
53844;DHT22;39744;53.314;5.710;2023-03-01T08:29:02;1.70;99.90
53844;DHT22;39744;53.314;5.710;2023-03-01T08:31:34;1.90;99.90
53844;DHT22;39744;53.314;5.710;2023-03-01T08:34:03;2.00;99.90
53844;DHT22;39744;53.314;5.710;2023-03-01T08:36:35;2.10;99.90
53844;DHT22;39744;53.314;5.710;2023-03-01T08:39:03;2.30;99.90
53844;DHT22;39744;53.314;5.710;2023-03-01T08:41:28;2.40;99.90
53844;DHT22;39744;53.314;5.710;2023-03-01T08:43:54;2.50;99.90
53844;DHT22;39744;53.314;5.710;2023-03-01T08:46:25;2.70;99.90
53844;DHT22;39744;53.314;5.710;2023-03-01T08:48:51;2.90;99.90
53844;DHT22;39744;53.314;5.710;2023-03-01T08:51:18;3.10;99.90
53844;DHT22;39744;53.314;5.710;2023-03-01T08:53:44;3.30;99.90
53844;DHT22;39744;53.314;5.710;2023-03-01T08:56:10;3.40;99.90
53844;DHT22;39744;53.314;5.710;2023-03-01T08:58:37;3.50;99.90
53844;DHT22;39744;53.314;5.710;2023-03-01T09:01:14;3.70;99.90
53844;DHT22;39744;53.314;5.710;2023-03-01T09:03:40;3.90;99.90
53844;DHT22;39744;53.314;5.710;2023-03-01T09:06:07;4.00;99.90
53844;DHT22;39744;53.314;5.710;2023-03-01T09:08:41;4.30;99.90
53844;DHT22;39744;53.314;5.710;2023-03-01T09:11:09;4.70;99.90
53844;DHT22;39744;53.314;5.710;2023-03-01T09:13:35;5.10;99.90
53844;DHT22;39744;53.314;5.710;2023-03-01T09:16:03;5.60;99.90
53844;DHT22;39744;53.314;5.710;2023-03-01T09:18:29;6.20;99.90
53844;DHT22;39744;53.314;5.710;2023-03-01T09:21:02;6.40;99.90
53844;DHT22;39744;53.314;5.710;2023-03-01T09:23:33;6.60;99.90
53844;DHT22;39744;53.314;5.710;2023-03-01T09:25:59;6.90;99.90
53844;DHT22;39744;53.314;5.710;2023-03-01T09:28:25;7.20;99.90
53844;DHT22;39744;53.314;5.710;2023-03-01T09:30:50;7.60;99.90
53844;DHT22;39744;53.314;5.710;2023-03-01T09:33:16;7.90;99.90
53844;DHT22;39744;53.314;5.710;2023-03-01T09:35:42;8.40;99.90
53844;DHT22;39744;53.314;5.710;2023-03-01T09:38:13;8.80;99.90
53844;DHT22;39744;53.314;5.710;2023-03-01T09:40:43;9.30;99.90
53844;DHT22;39744;53.314;5.710;2023-03-01T09:43:31;9.80;99.90
53844;DHT22;39744;53.314;5.710;2023-03-01T09:46:08;10.20;99.90
53844;DHT22;39744;53.314;5.710;2023-03-01T09:48:45;10.40;99.90
53844;DHT22;39744;53.314;5.710;2023-03-01T09:51:22;10.70;99.90
53844;DHT22;39744;53.314;5.710;2023-03-01T09:53:50;10.90;99.90
53844;DHT22;39744;53.314;5.710;2023-03-01T09:56:24;11.20;99.90
53844;DHT22;39744;53.314;5.710;2023-03-01T09:59:02;10.90;99.90
53844;DHT22;39744;53.314;5.710;2023-03-01T10:04:26;10.00;99.90
53844;DHT22;39744;53.314;5.710;2023-03-01T10:07:05;10.00;99.90
53844;DHT22;39744;53.314;5.710;2023-03-01T10:09:37;10.00;99.90
53844;DHT22;39744;53.314;5.710;2023-03-01T10:12:08;10.00;99.90
53844;DHT22;39744;53.314;5.710;2023-03-01T10:20:20;9.20;99.90
53844;DHT22;39744;53.314;5.710;2023-03-01T10:22:46;9.00;99.90
53844;DHT22;39744;53.314;5.710;2023-03-01T10:25:26;8.80;99.90
53844;DHT22;39744;53.314;5.710;2023-03-01T10:28:02;8.70;99.90
53844;DHT22;39744;53.314;5.710;2023-03-01T10:30:36;8.70;99.90
53844;DHT22;39744;53.314;5.710;2023-03-01T10:33:17;8.70;99.90
53844;DHT22;39744;53.314;5.710;2023-03-01T10:35:44;8.70;99.90
53844;DHT22;39744;53.314;5.710;2023-03-01T10:38:12;8.70;99.90
53844;DHT22;39744;53.314;5.710;2023-03-01T10:41:05;8.70;99.90
53844;DHT22;39744;53.314;5.710;2023-03-01T10:43:53;8.70;99.90
53844;DHT22;39744;53.314;5.710;2023-03-01T10:46:33;8.60;99.90
53844;DHT22;39744;53.314;5.710;2023-03-01T10:49:21;8.70;99.90
53844;DHT22;39744;53.314;5.710;2023-03-01T10:51:49;8.60;99.90
53844;DHT22;39744;53.314;5.710;2023-03-01T10:56:54;8.50;99.90
53844;DHT22;39744;53.314;5.710;2023-03-01T10:59:32;8.70;99.90
53844;DHT22;39744;53.314;5.710;2023-03-01T11:02:28;8.70;99.90
53844;DHT22;39744;53.314;5.710;2023-03-01T11:07:23;8.80;99.90
53844;DHT22;39744;53.314;5.710;2023-03-01T11:09:49;8.70;99.90
53844;DHT22;39744;53.314;5.710;2023-03-01T11:12:15;8.70;99.90
53844;DHT22;39744;53.314;5.710;2023-03-01T11:14:50;8.60;99.90
53844;DHT22;39744;53.314;5.710;2023-03-01T11:17:27;8.50;99.90
53844;DHT22;39744;53.314;5.710;2023-03-01T11:22:59;8.50;99.90
53844;DHT22;39744;53.314;5.710;2023-03-01T11:25:31;8.40;99.90
53844;DHT22;39744;53.314;5.710;2023-03-01T11:27:58;8.50;99.90
53844;DHT22;39744;53.314;5.710;2023-03-01T11:30:31;8.60;99.90
53844;DHT22;39744;53.314;5.710;2023-03-01T11:33:33;8.60;99.90
53844;DHT22;39744;53.314;5.710;2023-03-01T11:38:53;8.60;99.90
53844;DHT22;39744;53.314;5.710;2023-03-01T11:41:23;8.60;99.90
53844;DHT22;39744;53.314;5.710;2023-03-01T11:44:16;8.60;99.90
53844;DHT22;39744;53.314;5.710;2023-03-01T11:47:08;8.60;99.90
53844;DHT22;39744;53.314;5.710;2023-03-01T11:55:09;9.00;99.90
53844;DHT22;39744;53.314;5.710;2023-03-01T11:58:15;9.20;99.90
53844;DHT22;39744;53.314;5.710;2023-03-01T12:01:11;9.40;99.90
53844;DHT22;39744;53.314;5.710;2023-03-01T12:04:06;9.50;99.90
53844;DHT22;39744;53.314;5.710;2023-03-01T12:06:52;9.40;99.90
53844;DHT22;39744;53.314;5.710;2023-03-01T12:23:50;9.60;99.90
53844;DHT22;39744;53.314;5.710;2023-03-01T12:26:34;9.70;99.90
53844;DHT22;39744;53.314;5.710;2023-03-01T12:29:09;9.70;99.90
53844;DHT22;39744;53.314;5.710;2023-03-01T12:37:18;9.80;99.90
53844;DHT22;39744;53.314;5.710;2023-03-01T12:45:31;9.80;99.90
53844;DHT22;39744;53.314;5.710;2023-03-01T12:50:47;9.70;99.90
53844;DHT22;39744;53.314;5.710;2023-03-01T12:53:28;9.70;99.90
53844;DHT22;39744;53.314;5.710;2023-03-01T12:55:59;9.80;99.90
53844;DHT22;39744;53.314;5.710;2023-03-01T13:06:35;10.10;99.90
53844;DHT22;39744;53.314;5.710;2023-03-01T13:09:12;9.90;99.90
53844;DHT22;39744;53.314;5.710;2023-03-01T13:11:42;10.00;99.90
53844;DHT22;39744;53.314;5.710;2023-03-01T13:16:47;9.90;99.90
53844;DHT22;39744;53.314;5.710;2023-03-01T13:19:18;9.90;99.90
53844;DHT22;39744;53.314;5.710;2023-03-01T13:21:46;9.90;99.90
53844;DHT22;39744;53.314;5.710;2023-03-01T13:24:39;10.00;99.90
53844;DHT22;39744;53.314;5.710;2023-03-01T13:29:56;9.90;99.90
53844;DHT22;39744;53.314;5.710;2023-03-01T13:32:32;9.90;99.90
53844;DHT22;39744;53.314;5.710;2023-03-01T13:35:03;9.90;99.90
53844;DHT22;39744;53.314;5.710;2023-03-01T13:37:39;9.90;99.90
53844;DHT22;39744;53.314;5.710;2023-03-01T13:42:52;9.80;99.90
53844;DHT22;39744;53.314;5.710;2023-03-01T13:45:39;9.70;99.90
53844;DHT22;39744;53.314;5.710;2023-03-01T13:48:15;9.70;99.90
53844;DHT22;39744;53.314;5.710;2023-03-01T13:50:53;9.50;99.90
53844;DHT22;39744;53.314;5.710;2023-03-01T13:53:23;9.50;99.90
53844;DHT22;39744;53.314;5.710;2023-03-01T13:56:00;9.50;99.90
53844;DHT22;39744;53.314;5.710;2023-03-01T13:58:31;9.40;99.90
53844;DHT22;39744;53.314;5.710;2023-03-01T14:01:02;9.40;99.90
53844;DHT22;39744;53.314;5.710;2023-03-01T14:03:30;9.30;99.90
53844;DHT22;39744;53.314;5.710;2023-03-01T14:06:06;9.20;99.90
53844;DHT22;39744;53.314;5.710;2023-03-01T14:08:34;9.20;99.90
53844;DHT22;39744;53.314;5.710;2023-03-01T14:11:25;9.20;99.90
53844;DHT22;39744;53.314;5.710;2023-03-01T14:16:37;9.10;99.90
53844;DHT22;39744;53.314;5.710;2023-03-01T14:19:18;9.00;99.90
53844;DHT22;39744;53.314;5.710;2023-03-01T14:21:46;8.90;99.90
53844;DHT22;39744;53.314;5.710;2023-03-01T14:24:22;8.90;99.90
53844;DHT22;39744;53.314;5.710;2023-03-01T14:26:49;8.80;99.90
53844;DHT22;39744;53.314;5.710;2023-03-01T14:29:34;8.80;99.90
53844;DHT22;39744;53.314;5.710;2023-03-01T14:32:21;8.80;99.90
53844;DHT22;39744;53.314;5.710;2023-03-01T14:34:49;8.80;99.90
53844;DHT22;39744;53.314;5.710;2023-03-01T14:37:25;8.70;99.90
53844;DHT22;39744;53.314;5.710;2023-03-01T14:39:52;8.70;99.90
53844;DHT22;39744;53.314;5.710;2023-03-01T14:42:20;8.60;99.90
53844;DHT22;39744;53.314;5.710;2023-03-01T14:44:49;8.50;99.90
53844;DHT22;39744;53.314;5.710;2023-03-01T14:47:29;8.50;99.90
53844;DHT22;39744;53.314;5.710;2023-03-01T14:50:23;8.50;99.90
53844;DHT22;39744;53.314;5.710;2023-03-01T14:52:52;8.40;99.90
53844;DHT22;39744;53.314;5.710;2023-03-01T14:55:33;8.30;99.90
53844;DHT22;39744;53.314;5.710;2023-03-01T14:58:03;8.10;99.90
53844;DHT22;39744;53.314;5.710;2023-03-01T15:00:32;7.90;99.90
53844;DHT22;39744;53.314;5.710;2023-03-01T15:03:05;7.80;99.90
53844;DHT22;39744;53.314;5.710;2023-03-01T15:05:35;7.80;99.90
53844;DHT22;39744;53.314;5.710;2023-03-01T15:08:02;7.70;99.90
53844;DHT22;39744;53.314;5.710;2023-03-01T15:10:31;7.60;99.90
53844;DHT22;39744;53.314;5.710;2023-03-01T15:13:13;7.60;99.90
53844;DHT22;39744;53.314;5.710;2023-03-01T15:15:44;7.50;99.90
53844;DHT22;39744;53.314;5.710;2023-03-01T15:18:19;7.50;99.90
53844;DHT22;39744;53.314;5.710;2023-03-01T15:20:46;7.40;99.90
53844;DHT22;39744;53.314;5.710;2023-03-01T15:23:24;7.40;99.90
53844;DHT22;39744;53.314;5.710;2023-03-01T15:25:52;7.40;99.90
53844;DHT22;39744;53.314;5.710;2023-03-01T15:28:30;7.40;99.90
53844;DHT22;39744;53.314;5.710;2023-03-01T15:35:53;7.30;99.90
53844;DHT22;39744;53.314;5.710;2023-03-01T15:38:52;7.30;99.90
53844;DHT22;39744;53.314;5.710;2023-03-01T15:41:37;7.20;99.90
53844;DHT22;39744;53.314;5.710;2023-03-01T15:44:27;7.20;99.90
53844;DHT22;39744;53.314;5.710;2023-03-01T15:46:52;7.20;99.90
53844;DHT22;39744;53.314;5.710;2023-03-01T15:49:27;7.20;99.90
53844;DHT22;39744;53.314;5.710;2023-03-01T15:51:55;7.20;99.90
53844;DHT22;39744;53.314;5.710;2023-03-01T15:54:23;7.10;99.90
53844;DHT22;39744;53.314;5.710;2023-03-01T15:56:50;7.10;99.90
53844;DHT22;39744;53.314;5.710;2023-03-01T15:59:16;7.10;99.90
53844;DHT22;39744;53.314;5.710;2023-03-01T16:01:42;7.00;99.90
53844;DHT22;39744;53.314;5.710;2023-03-01T16:04:12;7.00;99.90
53844;DHT22;39744;53.314;5.710;2023-03-01T16:06:46;7.00;99.90
53844;DHT22;39744;53.314;5.710;2023-03-01T16:09:18;6.90;99.90
53844;DHT22;39744;53.314;5.710;2023-03-01T16:11:44;6.80;99.90
53844;DHT22;39744;53.314;5.710;2023-03-01T16:14:10;6.80;99.90
53844;DHT22;39744;53.314;5.710;2023-03-01T16:16:35;6.70;99.90
53844;DHT22;39744;53.314;5.710;2023-03-01T16:19:01;6.60;99.90
53844;DHT22;39744;53.314;5.710;2023-03-01T16:21:26;6.60;99.90
53844;DHT22;39744;53.314;5.710;2023-03-01T16:23:52;6.60;99.90
53844;DHT22;39744;53.314;5.710;2023-03-01T16:26:18;6.50;99.90
53844;DHT22;39744;53.314;5.710;2023-03-01T16:28:44;6.60;99.90
53844;DHT22;39744;53.314;5.710;2023-03-01T16:31:11;6.50;99.90
53844;DHT22;39744;53.314;5.710;2023-03-01T16:33:37;6.40;99.90
53844;DHT22;39744;53.314;5.710;2023-03-01T16:36:10;6.40;99.90
53844;DHT22;39744;53.314;5.710;2023-03-01T16:38:36;6.30;99.90
53844;DHT22;39744;53.314;5.710;2023-03-01T16:41:02;6.20;99.90
53844;DHT22;39744;53.314;5.710;2023-03-01T16:43:28;6.20;99.90
53844;DHT22;39744;53.314;5.710;2023-03-01T16:45:54;6.10;99.90
53844;DHT22;39744;53.314;5.710;2023-03-01T16:48:19;6.00;99.90
53844;DHT22;39744;53.314;5.710;2023-03-01T16:50:45;6.00;99.90
53844;DHT22;39744;53.314;5.710;2023-03-01T16:53:11;5.90;99.90
53844;DHT22;39744;53.314;5.710;2023-03-01T16:55:37;5.90;99.90
53844;DHT22;39744;53.314;5.710;2023-03-01T16:58:10;5.80;99.90
53844;DHT22;39744;53.314;5.710;2023-03-01T17:00:35;5.70;99.90
53844;DHT22;39744;53.314;5.710;2023-03-01T17:03:01;5.60;99.90
53844;DHT22;39744;53.314;5.710;2023-03-01T17:05:27;5.60;99.90
53844;DHT22;39744;53.314;5.710;2023-03-01T17:07:53;5.50;99.90
53844;DHT22;39744;53.314;5.710;2023-03-01T17:10:21;5.50;99.90
53844;DHT22;39744;53.314;5.710;2023-03-01T17:12:50;5.40;99.90
53844;DHT22;39744;53.314;5.710;2023-03-01T17:15:16;5.30;99.90
53844;DHT22;39744;53.314;5.710;2023-03-01T17:17:42;5.30;99.90
53844;DHT22;39744;53.314;5.710;2023-03-01T17:20:08;5.20;99.90
53844;DHT22;39744;53.314;5.710;2023-03-01T17:22:34;5.10;99.90
53844;DHT22;39744;53.314;5.710;2023-03-01T17:25:00;5.10;99.90
53844;DHT22;39744;53.314;5.710;2023-03-01T17:27:26;5.00;99.90
53844;DHT22;39744;53.314;5.710;2023-03-01T17:29:52;5.00;99.90